Time;durP1;ratioP1;P1;durP2;ratioP2;P2;SDS_P1;SDS_P2;PMS_P1;PMS_P2;Temp;Humidity;BMP_temperature;BMP_pressure;BME280_temperature;BME280_humidity;BME280_pressure;Samples;Min_cycle;Max_cycle;Signal;HPM_P1;HPM_P2
2021/09/06 00:02:47;;;;;;;7.65;4.03;;;;;;;15.18;86.75;93306.03;4792676;29;20065;-93
2021/09/06 00:09:32;;;;;;;;;;;;;;;;;;;;;
2021/09/06 00:13:06;;;;;;;7.50;4.22;;;;;;;14.92;87.67;93270.69;4787980;29;20146;-92
2021/09/06 00:16:19;;;;;;;;;;;;;;;;;;;;;
2021/09/06 00:19:28;;;;;;;;;;;;;;;;;;;;;
2021/09/06 00:23:04;;;;;;;9.02;4.40;;;;;;;14.81;87.43;93264.81;4759183;29;20504;-92
2021/09/06 00:25:45;;;;;;;7.55;3.53;;;;;;;14.84;87.03;93255.53;4792447;29;20137;-94
2021/09/06 00:29:03;;;;;;;4.60;3.38;;;;;;;14.98;86.97;93280.06;4806241;29;20104;-94
2021/09/06 00:32:03;;;;;;;7.28;3.55;;;;;;;14.82;86.40;93257.72;4792186;29;20050;-92
2021/09/06 00:35:06;;;;;;;7.10;4.15;;;;;;;14.75;85.96;93261.50;4805580;29;20062;-93
2021/09/06 00:38:26;;;;;;;7.97;4.60;;;;;;;15.02;85.22;93311.88;4821253;29;20057;-92
2021/09/06 00:41:40;;;;;;;5.45;3.28;;;;;;;15.08;85.75;93321.25;4796682;29;20047;-94
2021/09/06 00:44:41;;;;;;;;;;;;;;;;;;;;;
2021/09/06 00:47:40;;;;;;;7.03;3.65;;;;;;;15.00;86.91;93304.28;4807714;29;20045;-92
2021/09/06 00:50:54;;;;;;;7.72;4.30;;;;;;;14.77;86.52;93269.91;4824925;29;20054;-94
2021/09/06 00:57:24;;;;;;;;;;;;;;;;;;;;;
2021/09/06 01:01:25;;;;;;;;;;;;;;;;;;;;;
2021/09/06 01:04:18;;;;;;;6.32;4.05;;;;;;;14.84;86.09;93295.06;4784136;29;20055;-92
2021/09/06 01:07:40;;;;;;;7.18;3.55;;;;;;;14.69;86.18;93273.22;4807965;29;20046;-93
2021/09/06 01:14:49;;;;;;;6.75;3.83;;;;;;;14.66;88.09;93279.09;4792492;29;20046;-93
2021/09/06 01:17:40;;;;;;;6.25;3.92;;;;;;;15.03;88.28;93331.91;4818494;29;20054;-94
2021/09/06 01:21:46;;;;;;;;;;;;;;;;;;;;;
2021/09/06 01:24:48;;;;;;;;;;;;;;;;;;;;;
2021/09/06 01:27:46;;;;;;;8.63;4.65;;;;;;;15.01;88.58;93331.41;4812411;29;20496;-93
2021/09/06 01:30:40;;;;;;;;;;;;;;;;;;;;;
2021/09/06 01:33:52;;;;;;;;;;;;;;;;;;;;;
2021/09/06 01:36:41;;;;;;;6.68;4.65;;;;;;;14.66;89.28;93280.91;4806963;29;20055;-93
2021/09/06 01:40:08;;;;;;;;;;;;;;;;;;;;;
2021/09/06 01:43:38;;;;;;;;;;;;;;;;;;;;;
2021/09/06 01:51:00;;;;;;;7.43;4.50;;;;;;;14.57;90.00;93291.38;4824167;29;20045;-94
2021/09/06 01:54:27;;;;;;;;;;;;;;;;;;;;;
2021/09/06 01:57:56;;;;;;;8.15;4.28;;;;;;;14.61;89.59;93296.81;4804516;29;20050;-93
2021/09/06 02:01:17;;;;;;;9.45;5.43;;;;;;;14.71;90.57;93325.63;4821574;29;20043;-93
2021/09/06 02:08:05;;;;;;;9.18;4.90;;;;;;;14.65;90.46;93319.66;4802994;29;20043;-93
2021/09/06 02:21:22;;;;;;;6.03;4.05;;;;;;;14.75;90.56;93356.38;4773218;30;20039;-92
2021/09/06 02:24:20;;;;;;;6.10;4.07;;;;;;;14.35;90.53;93305.91;4791281;29;20042;-93
2021/09/06 02:27:50;;;;;;;;;;;;;;;;;;;;;
2021/09/06 02:31:43;;;;;;;;;;;;;;;;;;;;;
2021/09/06 02:40:28;;;;;;;;;;;;;;;;;;;;;
2021/09/06 02:47:35;;;;;;;;;;;;;;;;;;;;;
2021/09/06 02:50:42;;;;;;;5.03;3.28;;;;;;;14.30;90.37;93297.34;4731560;30;20062;-92
2021/09/06 02:53:57;;;;;;;;;;;;;;;;;;;;;
2021/09/06 02:56:57;;;;;;;6.88;3.97;;;;;;;14.21;90.30;93289.31;4756318;30;20051;-93
2021/09/06 02:59:37;;;;;;;5.25;2.92;;;;;;;14.43;90.13;93315.00;4753052;30;20550;-92
2021/09/06 03:12:22;;;;;;;;;;;;;;;;;;;;;
2021/09/06 03:15:57;;;;;;;5.28;3.70;;;;;;;14.03;85.44;93276.97;4807301;29;20058;-93
2021/09/06 03:19:53;;;;;;;;;;;;;;;;;;;;;
2021/09/06 03:22:30;;;;;;;3.80;2.65;;;;;;;14.23;86.99;93305.59;4710968;30;20106;-92
2021/09/06 03:26:14;;;;;;;;;;;;;;;;;;;;;
2021/09/06 03:29:30;;;;;;;;;;;;;;;;;;;;;
2021/09/06 03:35:42;;;;;;;5.28;3.50;;;;;;;14.22;87.15;93322.47;4782727;29;20508;-92
2021/09/06 03:38:39;;;;;;;5.85;3.42;;;;;;;13.87;88.52;93271.13;4801349;29;20499;-91
2021/09/06 03:41:56;;;;;;;3.92;2.67;;;;;;;14.18;89.22;93316.19;4793479;29;20484;-94
2021/09/06 03:44:54;;;;;;;3.85;2.78;;;;;;;14.03;88.69;93295.41;4778780;29;20049;-94
2021/09/06 03:48:11;;;;;;;4.47;2.63;;;;;;;13.74;89.34;93264.78;4808228;29;20054;-93
2021/09/06 03:51:35;;;;;;;4.25;2.42;;;;;;;13.87;89.27;93281.66;4812154;29;20111;-93
2021/09/06 03:54:48;;;;;;;6.30;2.65;;;;;;;13.86;89.22;93291.41;4831012;29;20044;-93
2021/09/06 04:01:22;;;;;;;;;;;;;;;;;;;;;
2021/09/06 04:04:57;;;;;;;;;;;;;;;;;;;;;
2021/09/06 04:08:21;;;;;;;;;;;;;;;;;;;;;
2021/09/06 04:11:25;;;;;;;5.55;2.67;;;;;;;13.45;89.59;93255.19;4793950;29;20138;-94
2021/09/06 04:14:27;;;;;;;;;;;;;;;;;;;;;
2021/09/06 04:17:56;;;;;;;4.00;2.35;;;;;;;13.47;87.90;93281.97;4807592;29;20508;-94
2021/09/06 04:21:35;;;;;;;;;;;;;;;;;;;;;
2021/09/06 04:24:46;;;;;;;;;;;;;;;;;;;;;
2021/09/06 04:27:31;;;;;;;3.65;2.42;;;;;;;13.27;88.45;93267.22;4795849;29;20057;-94
2021/09/06 04:30:46;;;;;;;4.82;2.78;;;;;;;13.37;89.43;93276.06;4787790;29;20055;-93
2021/09/06 04:34:15;;;;;;;3.92;2.42;;;;;;;13.29;88.98;93270.38;4816010;29;20038;-93
2021/09/06 04:37:13;;;;;;;;;;;;;;;;;;;;;
2021/09/06 04:40:28;;;;;;;;;;;;;;;;;;;;;
2021/09/06 04:43:45;;;;;;;;;;;;;;;;;;;;;
2021/09/06 04:47:20;;;;;;;5.50;2.88;;;;;;;13.18;88.02;93258.41;4789692;29;20097;-95
2021/09/06 04:50:24;;;;;;;5.72;2.53;;;;;;;13.20;88.01;93266.03;4781664;29;20063;-95
2021/09/06 04:53:06;;;;;;;4.82;3.30;;;;;;;13.31;88.54;93278.00;4804308;29;20035;-94
2021/09/06 04:56:05;;;;;;;;;;;;;;;;;;;;;
2021/09/06 04:59:16;;;;;;;;;;;;;;;;;;;;;
2021/09/06 05:02:23;;;;;;;5.07;2.83;;;;;;;13.22;88.90;93269.16;4792592;29;20047;-95
2021/09/06 05:05:36;;;;;;;;;;;;;;;;;;;;;
2021/09/06 05:08:31;;;;;;;4.95;2.63;;;;;;;13.53;88.78;93317.69;4798450;29;20039;-93
2021/09/06 05:11:51;;;;;;;4.50;2.70;;;;;;;13.30;88.96;93281.69;4773064;29;20393;-96
2021/09/06 05:15:09;;;;;;;;;;;;;;;;;;;;;
2021/09/06 05:19:00;;;;;;;3.83;2.53;;;;;;;13.38;88.08;93280.28;4774709;29;20120;-94
2021/09/06 05:21:57;;;;;;;4.63;2.72;;;;;;;13.49;87.84;93284.34;4789920;29;20053;-96
2021/09/06 05:25:04;;;;;;;;;;;;;;;;;;;;;
2021/09/06 05:31:17;;;;;;;4.57;2.90;;;;;;;13.82;86.09;93295.69;4773999;29;20139;-94
2021/09/06 05:34:24;;;;;;;7.25;2.88;;;;;;;14.00;85.78;93314.38;4800138;29;20524;-95
2021/09/06 05:37:32;;;;;;;;;;;;;;;;;;;;;
2021/09/06 05:40:17;;;;;;;4.13;2.55;;;;;;;13.93;85.00;93298.94;4805746;29;20330;-94
2021/09/06 05:43:05;;;;;;;4.40;2.60;;;;;;;14.22;85.54;93337.47;4807986;29;20054;-94
2021/09/06 05:46:16;;;;;;;5.80;3.30;;;;;;;14.12;85.52;93322.63;4809055;29;20061;-94
2021/09/06 05:48:54;;;;;;;5.47;3.25;;;;;;;13.98;84.87;93298.09;4804236;29;20061;-94
2021/09/06 05:51:41;;;;;;;;;;;;;;;;;;;;;
2021/09/06 05:54:51;;;;;;;6.05;2.85;;;;;;;14.10;85.16;93319.50;4819303;29;20050;-95
2021/09/06 05:57:35;;;;;;;4.95;3.17;;;;;;;14.06;85.26;93313.25;4822035;29;20034;-94
2021/09/06 06:00:16;;;;;;;4.30;2.80;;;;;;;14.20;85.08;93324.59;4823999;29;20051;-95
2021/09/06 06:02:59;;;;;;;5.25;3.28;;;;;;;14.46;85.64;93358.44;4807475;29;20484;-95
2021/09/06 06:06:17;;;;;;;4.22;2.42;;;;;;;14.24;84.92;93322.94;4793349;29;20067;-95
2021/09/06 06:09:24;;;;;;;;;;;;;;;;;;;;;
2021/09/06 06:12:21;;;;;;;9.07;3.92;;;;;;;14.42;84.47;93323.97;4821751;29;20203;-96
2021/09/06 06:15:05;;;;;;;4.93;3.20;;;;;;;14.55;83.74;93320.63;4807497;29;20050;-95
2021/09/06 06:18:00;;;;;;;4.72;3.58;;;;;;;14.88;83.39;93346.94;4818937;29;20034;-96
2021/09/06 06:21:35;;;;;;;;;;;;;;;;;;;;;
2021/09/06 06:24:47;;;;;;;;;;;;;;;;;;;;;
2021/09/06 06:54:34;;;;;;;4.80;3.20;;;;;;;30.85;36.53;93376.41;4809641;29;20050;-94
2021/09/06 06:57:36;;;;;;;8.13;3.53;;;;;;;31.45;33.71;93358.31;4812338;29;20052;-95
2021/09/06 07:01:02;;;;;;;4.75;3.17;;;;;;;31.97;33.42;93338.59;4823095;29;21189;-94
2021/09/06 07:04:58;;;;;;;;;;;;;;;;;;;;;
2021/09/06 07:07:32;;;;;;;;;;;;;;;30.30;35.68;93385.81;4841948;29;20034;-93
2021/09/06 07:13:50;;;;;;;4.82;2.90;;;;;;;28.56;36.98;93379.75;4816537;29;20072;-93
2021/09/06 07:16:57;;;;;;;6.30;3.08;;;;;;;26.96;41.38;93346.59;4820333;29;20051;-96
2021/09/06 07:19:34;;;;;;;4.38;2.92;;;;;;;25.91;43.28;93333.03;4787364;29;20055;-93
2021/09/06 07:22:37;;;;;;;5.85;3.17;;;;;;;25.55;44.73;93379.97;4804439;29;20042;-95
2021/09/06 07:25:28;;;;;;;8.35;3.72;;;;;;;24.02;54.06;93338.41;4819430;29;20058;-96
2021/09/06 07:28:58;;;;;;;6.97;4.15;;;;;;;23.33;58.62;93383.38;4819579;29;20184;-96
2021/09/06 07:31:32;;;;;;;8.50;4.28;;;;;;;22.23;60.40;93359.50;4822475;29;20575;-96
2021/09/06 07:34:42;;;;;;;;;;;;;;;;;;;;;
2021/09/06 07:38:17;;;;;;;8.88;4.78;;;;;;;21.08;63.91;93354.41;4807346;29;20059;-95
2021/09/06 07:41:30;;;;;;;5.75;3.72;;;;;;;21.82;61.88;93369.34;4816963;29;20064;-95
2021/09/06 07:48:31;;;;;;;6.18;3.75;;;;;;;21.44;62.34;93350.25;4814660;29;20046;-94
2021/09/06 07:51:53;;;;;;;;;;;;;;;;;;;;;
2021/09/06 07:55:08;;;;;;;8.25;3.78;;;;;;;21.23;68.45;93392.91;4823680;29;20050;-93
2021/09/06 07:58:19;;;;;;;;;;;;;;;;;;;;;
2021/09/06 08:02:00;;;;;;;6.80;4.15;;;;;;;20.82;68.45;93406.00;4823284;29;20652;-94
2021/09/06 08:05:32;;;;;;;8.55;4.18;;;;;;;20.99;67.52;93410.41;4810729;29;20362;-94
2021/09/06 08:09:03;;;;;;;10.73;3.95;;;;;;;21.16;67.85;93409.44;4775654;29;20049;-93
2021/09/06 08:12:17;;;;;;;6.93;3.72;;;;;;;20.24;69.39;93367.81;4801837;29;20047;-93
2021/09/06 08:22:13;;;;;;;8.90;4.30;;;;;;;20.51;71.10;93428.47;4819926;29;20048;-93
2021/09/06 08:25:11;;;;;;;6.68;3.30;;;;;;;18.87;74.44;93383.00;4815379;29;20276;-93
2021/09/06 08:28:19;;;;;;;7.20;4.20;;;;;;;19.64;70.24;93442.25;4823865;29;20399;-93
2021/09/06 08:31:36;;;;;;;;;;;;;;;;;;;;;
2021/09/06 08:34:54;;;;;;;;;;;;;;;;;;;;;
2021/09/06 08:38:07;;;;;;;5.00;2.90;;;;;;;20.30;62.13;93425.03;4824212;29;20054;-93
2021/09/06 08:41:30;;;;;;;6.28;3.75;;;;;;;20.23;67.33;93390.97;4822734;29;20049;-93
2021/09/06 08:45:01;;;;;;;7.63;4.18;;;;;;;20.60;67.66;93447.03;4818416;29;20090;-94
2021/09/06 08:48:00;;;;;;;7.43;4.32;;;;;;;20.43;67.64;93416.00;4820355;29;20055;-95
2021/09/06 08:54:45;;;;;;;;;;;;;;;;;;;;;
2021/09/06 09:05:08;;;;;;;7.60;4.78;;;;;;;20.06;69.60;93394.56;4810719;29;20054;-94
2021/09/06 09:09:14;;;;;;;;;;;;;;;;;;;;;
2021/09/06 09:28:50;;;;;;;4.57;2.92;;;;;;;20.84;65.13;93441.03;4708452;30;20045;-94
2021/09/06 09:32:38;;;;;;;5.40;2.67;;;;;;;20.32;66.49;93389.03;4752045;30;20695;-94
2021/09/06 09:36:08;;;;;;;;;;;;;;;;;;;;;
2021/09/06 09:39:03;;;;;;;;;;;;;;;;;;;;;
2021/09/06 09:42:08;;;;;;;6.68;3.78;;;;;;;21.11;60.96;93418.41;4784759;30;20058;-93
2021/09/06 09:45:33;;;;;;;;;;;;;;;;;;;;;
2021/09/06 09:48:41;;;;;;;6.40;3.78;;;;;;;19.68;61.85;93368.81;4822830;29;20587;-94
2021/09/06 09:51:32;;;;;;;;;;;;;;;;;;;;;
2021/09/06 09:54:30;;;;;;;5.97;2.90;;;;;;;20.30;63.96;93385.91;4819253;29;20047;-94
2021/09/06 10:01:01;;;;;;;;;;;;;;;;;;;;;
2021/09/06 10:04:20;;;;;;;;;;;;;;;;;;;;;
2021/09/06 10:13:51;;;;;;;;;;;;;;;;;;;;;
2021/09/06 10:17:20;;;;;;;3.75;2.33;;;;;;;20.39;56.34;93396.47;4823754;29;20361;-93
2021/09/06 10:20:14;;;;;;;5.15;2.75;;;;;;;20.86;55.72;93379.53;4822239;29;20075;-94
2021/09/06 10:23:26;;;;;;;5.25;2.75;;;;;;;21.09;55.85;93414.50;4823280;29;20042;-93
2021/09/06 10:27:04;;;;;;;8.15;2.50;;;;;;;20.84;56.63;93377.19;4822491;29;20038;-94
2021/09/06 10:33:42;;;;;;;;;;;;;;;;;;;;;
2021/09/06 10:37:03;;;;;;;;;;;;;;;;;;;;;
2021/09/06 10:40:04;;;;;;;3.70;2.08;;;;;;;20.89;55.40;93353.03;4823850;29;20062;-93
2021/09/06 10:43:24;;;;;;;;;;;;;;;;;;;;;
2021/09/06 10:53:18;;;;;;;;;;;;;;;;;;;;;
2021/09/06 10:59:56;;;;;;;5.07;2.55;;;;;;;21.78;55.50;93344.47;4840373;29;20132;-93
2021/09/06 11:10:37;;;;;;;4.93;2.40;;;;;;;22.11;52.52;93390.72;4796468;29;19947;-93
2021/09/06 11:13:42;;;;;;;4.10;2.60;;;;;;;22.37;52.46;93385.03;4799842;29;20141;-94
2021/09/06 11:16:53;;;;;;;;;;;;;;;;;;;;;
2021/09/06 11:39:12;;;;;;;;;;;;;;;;;;;;;
2021/09/06 11:45:40;;;;;;;3.88;2.38;;;;;;;20.70;53.47;93363.41;4701816;30;20049;-92
2021/09/06 11:49:11;;;;;;;;;;;;;;;;;;;;;
2021/09/06 11:51:53;;;;;;;4.82;2.55;;;;;;;21.32;53.06;93335.00;4759594;29;20039;-94
2021/09/06 11:58:51;;;;;;;;;;;;;;;;;;;;;
2021/09/06 12:05:30;;;;;;;;;;;;;;;;;;;;;
2021/09/06 12:26:08;;;;;;;;;;;;;;;;;;;;;
2021/09/06 12:29:20;;;;;;;;;;;;;;;;;;;;;
2021/09/06 12:40:03;;;;;;;;;;;;;;;;;;;;;
2021/09/06 12:42:51;;;;;;;;;;;;;;;;;;;;;
2021/09/06 12:49:17;;;;;;;3.55;2.28;;;;;;;22.98;51.27;93363.41;4807952;29;20076;-94
2021/09/06 13:00:08;;;;;;;;;;;;;;;;;;;;;
2021/09/06 13:03:30;;;;;;;;;;;;;;;;;;;;;
2021/09/06 13:18:06;;;;;;;5.32;2.47;;;;;;;22.89;50.09;93346.78;4730668;30;20488;-95
2021/09/06 13:26:01;;;;;;;;;;;;;;;;;;;;;
2021/09/06 13:29:03;;;;;;;;;;;;;;;;;;;;;
2021/09/06 13:44:39;;;;;;;3.83;2.30;;;;;;;22.72;48.38;93294.53;4751866;30;20048;-95
2021/09/06 13:48:06;;;;;;;4.63;2.55;;;;;;;22.55;50.87;93295.59;4751549;30;20550;-94
2021/09/06 13:55:10;;;;;;;;;;;;;;;;;;;;;
2021/09/06 14:23:48;;;;;;;;;;;;;;;;;;;;;
2021/09/06 14:31:33;;;;;;;;;;;;;;;;;;;;;
2021/09/06 14:38:19;;;;;;;;;;;;;;;;;;;;;
2021/09/06 14:45:11;;;;;;;;;;;;;;;;;;;;;
2021/09/06 15:04:04;;;;;;;;;;;;;;;;;;;;;
2021/09/06 15:07:26;;;;;;;4.20;2.47;;;;;;;23.63;48.02;93328.38;4730522;30;20503;-95
2021/09/06 15:10:52;;;;;;;5.07;3.00;;;;;;;23.25;48.17;93281.72;4691379;30;20396;-94
2021/09/06 15:14:12;;;;;;;;;;;;;;;;;;;;;
2021/09/06 15:24:07;;;;;;;;;;;;;;;;;;;;;
2021/09/06 15:27:58;;;;;;;;;;;;;;;;;;;;;
2021/09/06 15:35:16;;;;;;;7.20;3.08;;;;;;;22.14;54.45;93283.41;4825740;29;20045;-95
2021/09/06 15:38:39;;;;;;;;;;;;;;;;;;;;;
2021/09/06 15:42:18;;;;;;;;;;;;;;;;;;;;;
2021/09/06 16:01:49;;;;;;;;;;;;;;;;;;;;;
2021/09/06 16:05:00;;;;;;;4.72;2.83;;;;;;;24.33;47.98;93302.00;4667847;30;20481;-94
2021/09/06 16:08:40;;;;;;;4.75;2.83;;;;;;;23.59;47.81;93273.31;4698121;30;20046;-95
2021/09/06 16:28:03;;;;;;;;;;;;;;;;;;;;;
2021/09/06 16:31:28;;;;;;;5.95;3.00;;;;;;;23.78;47.18;93256.59;4734424;30;20499;-95
2021/09/06 16:45:59;;;;;;;;;;;;;;;;;;;;;
2021/09/06 16:52:47;;;;;;;4.28;2.80;;;;;;;22.65;52.93;93257.75;4839467;29;20049;-94
2021/09/06 17:00:11;;;;;;;4.38;2.75;;;;;;;22.51;53.95;93288.63;4780842;30;20784;-95
2021/09/06 17:03:04;;;;;;;5.18;3.25;;;;;;;22.44;54.77;93305.22;4742229;30;20055;-95
2021/09/06 17:06:11;;;;;;;;;;;;;;;;;;;;;
2021/09/06 17:09:34;;;;;;;;;;;;;;;;;;;;;
2021/09/06 17:20:18;;;;;;;;;;;;;;;;;;;;;
2021/09/06 17:28:04;;;;;;;;;;;;;;;;;;;;;
2021/09/06 17:58:25;;;;;;;4.95;3.08;;;;;;;19.55;65.46;93314.03;4857880;23;20068;-78
2021/09/06 18:00:54;;;;;;;4.80;3.10;;;;;;;19.40;65.79;93311.94;4859956;29;20576;-77
2021/09/06 18:03:22;;;;;;;5.45;3.20;;;;;;;19.30;66.29;93313.84;4875656;29;20052;-77
2021/09/06 18:05:49;;;;;;;5.25;2.70;;;;;;;19.22;66.64;93316.56;4878273;29;20076;-79
2021/09/06 18:08:16;;;;;;;4.75;2.72;;;;;;;19.09;66.90;93320.97;4868679;29;20528;-77
2021/09/06 18:10:41;;;;;;;5.97;3.13;;;;;;;19.00;67.07;93325.53;4867106;29;20081;-77
2021/09/06 18:13:07;;;;;;;8.82;3.25;;;;;;;18.92;67.31;93329.78;4878873;29;20069;-77
2021/09/06 18:15:33;;;;;;;4.88;2.83;;;;;;;18.85;67.52;93327.63;4877345;29;20080;-78
2021/09/06 18:17:59;;;;;;;7.18;3.75;;;;;;;18.73;67.69;93328.25;4847621;29;20036;-77
2021/09/06 18:20:25;;;;;;;5.00;2.85;;;;;;;18.63;67.93;93327.81;4863338;29;20048;-77
2021/09/06 18:22:50;;;;;;;5.50;3.03;;;;;;;18.55;67.92;93341.84;4871318;29;20451;-77
2021/09/06 18:25:16;;;;;;;6.55;3.50;;;;;;;18.47;67.72;93338.91;4856738;29;20747;-77
2021/09/06 18:27:43;;;;;;;5.82;3.10;;;;;;;18.39;68.08;93334.38;4853964;29;20084;-77
2021/09/06 18:30:10;;;;;;;4.07;2.42;;;;;;;18.36;68.15;93340.31;4858194;29;20209;-77
2021/09/06 18:32:36;;;;;;;5.75;2.75;;;;;;;18.30;68.05;93347.63;4850273;29;20041;-78
2021/09/06 18:35:03;;;;;;;6.80;2.85;;;;;;;18.25;67.83;93347.78;4858693;29;20106;-78
2021/09/06 18:37:30;;;;;;;6.22;3.30;;;;;;;18.17;68.45;93348.59;4841214;29;20125;-78
2021/09/06 18:39:56;;;;;;;4.72;2.72;;;;;;;18.14;68.47;93359.03;4859175;29;20047;-77
2021/09/06 18:42:21;;;;;;;5.68;3.47;;;;;;;18.10;68.36;93354.38;4824004;29;20045;-77
2021/09/06 18:44:47;;;;;;;5.70;3.10;;;;;;;18.05;68.34;93362.44;4872738;29;20060;-78
2021/09/06 18:47:14;;;;;;;4.88;2.92;;;;;;;18.01;68.19;93369.47;4852513;29;20060;-78
2021/09/06 18:49:40;;;;;;;5.07;3.08;;;;;;;17.95;68.36;93365.41;4857974;29;20120;-77
2021/09/06 18:52:06;;;;;;;4.65;3.08;;;;;;;17.96;68.28;93366.94;4838331;29;20207;-77
2021/09/06 18:54:32;;;;;;;5.03;2.80;;;;;;;17.94;68.47;93371.78;4875102;29;20127;-77
2021/09/06 18:56:57;;;;;;;6.18;3.47;;;;;;;17.92;68.22;93379.25;4874233;29;20160;-77
2021/09/06 18:59:23;;;;;;;4.25;2.60;;;;;;;17.89;68.02;93375.34;4865958;29;20049;-76
2021/09/06 19:01:50;;;;;;;4.43;2.63;;;;;;;17.87;68.01;93377.53;4840109;29;20049;-77
2021/09/06 19:04:18;;;;;;;5.13;2.70;;;;;;;17.88;68.34;93384.41;4871521;29;20051;-77
2021/09/06 19:06:44;;;;;;;5.57;3.13;;;;;;;17.86;68.59;93381.28;4856966;29;20045;-76
2021/09/06 19:09:10;;;;;;;4.10;2.58;;;;;;;17.84;68.47;93380.81;4857120;29;20045;-76
2021/09/06 19:11:36;;;;;;;5.50;3.17;;;;;;;17.84;68.76;93383.47;4895573;29;20128;-76
2021/09/06 19:14:02;;;;;;;6.43;3.58;;;;;;;17.82;68.69;93385.63;4870388;29;20473;-76
2021/09/06 19:16:29;;;;;;;5.22;3.25;;;;;;;17.79;68.52;93388.09;4858526;29;20029;-76
2021/09/06 19:18:55;;;;;;;6.03;3.20;;;;;;;17.74;68.44;93389.00;4860062;29;20504;-77
2021/09/06 19:21:23;;;;;;;5.75;2.72;;;;;;;17.75;68.32;93387.94;4862500;29;20070;-77
2021/09/06 19:23:49;;;;;;;4.80;2.78;;;;;;;17.76;68.27;93394.00;4859783;29;20076;-77
2021/09/06 19:26:16;;;;;;;6.95;2.80;;;;;;;17.76;68.17;93394.00;4862060;29;20049;-77
2021/09/06 19:28:43;;;;;;;6.47;2.85;;;;;;;17.72;68.54;93385.91;4879649;29;20488;-77
2021/09/06 19:31:09;;;;;;;6.07;3.25;;;;;;;17.73;68.39;93391.97;4875681;29;20428;-77
2021/09/06 19:33:36;;;;;;;6.82;3.25;;;;;;;17.72;67.92;93403.66;4862375;29;20053;-77
2021/09/06 19:36:05;;;;;;;5.13;3.22;;;;;;;17.68;68.00;93398.19;4877939;29;20052;-77
2021/09/06 19:38:32;;;;;;;4.47;2.55;;;;;;;17.68;68.10;93400.84;4864455;29;20073;-77
2021/09/06 19:40:58;;;;;;;4.68;2.60;;;;;;;17.69;68.21;93405.81;4880621;29;20049;-77
2021/09/06 19:43:24;;;;;;;6.45;3.33;;;;;;;17.71;68.12;93410.03;4879848;29;20041;-77
2021/09/06 19:45:50;;;;;;;5.72;3.28;;;;;;;17.69;67.84;93408.47;4877779;29;20045;-77
2021/09/06 19:48:16;;;;;;;7.82;3.15;;;;;;;17.73;67.58;93418.47;4847491;29;20049;-77
2021/09/06 19:50:42;;;;;;;6.25;2.90;;;;;;;17.77;67.97;93419.41;4862353;29;20052;-76
2021/09/06 19:53:08;;;;;;;4.25;2.55;;;;;;;17.79;67.90;93423.31;4894953;29;20418;-77
2021/09/06 19:55:34;;;;;;;5.90;2.90;;;;;;;17.83;67.02;93423.47;4890016;29;20131;-77
2021/09/06 19:58:01;;;;;;;4.90;2.75;;;;;;;17.84;67.03;93427.72;4877208;29;20108;-77
2021/09/06 20:00:27;;;;;;;5.72;2.65;;;;;;;17.89;67.70;93432.84;4862377;29;20060;-77
2021/09/06 20:02:53;;;;;;;5.35;3.08;;;;;;;17.91;67.81;93433.31;4879121;29;20404;-77
2021/09/06 20:05:19;;;;;;;5.15;3.15;;;;;;;17.91;67.61;93430.69;4879391;29;20060;-77
2021/09/06 20:07:44;;;;;;;5.28;2.97;;;;;;;17.95;67.76;93439.56;4879240;29;20444;-76
2021/09/06 20:10:11;;;;;;;5.68;3.17;;;;;;;17.91;67.83;93433.31;4862216;29;20053;-76
2021/09/06 20:12:37;;;;;;;4.05;2.63;;;;;;;17.97;67.78;93442.69;4862108;29;20091;-76
2021/09/06 20:15:04;;;;;;;5.18;2.53;;;;;;;17.99;67.98;93445.81;4878699;29;20064;-76
2021/09/06 20:17:29;;;;;;;5.70;3.20;;;;;;;17.99;67.71;93445.81;4869313;29;20045;-76
2021/09/06 20:19:55;;;;;;;4.93;3.20;;;;;;;17.98;67.64;93441.59;4880390;29;20237;-77
2021/09/06 20:22:21;;;;;;;6.25;3.05;;;;;;;18.01;67.90;93446.28;4897860;29;20037;-77
2021/09/06 20:24:47;;;;;;;5.60;3.17;;;;;;;18.03;68.33;93446.75;4884382;29;20048;-77
2021/09/06 20:27:13;;;;;;;5.50;3.60;;;;;;;18.04;68.52;93444.91;4880603;29;20551;-77
2021/09/06 20:29:38;;;;;;;4.78;3.30;;;;;;;18.06;68.67;93448.78;4877881;29;20053;-77
2021/09/06 20:32:04;;;;;;;5.30;3.38;;;;;;;18.08;68.65;93451.91;4876229;29;20053;-77
2021/09/06 20:34:30;;;;;;;4.25;2.33;;;;;;;18.10;69.17;93449.75;4878611;29;20056;-77
2021/09/06 20:36:55;;;;;;;5.38;3.13;;;;;;;18.12;69.19;93451.28;4878035;29;20445;-77
2021/09/06 20:39:21;;;;;;;4.03;2.65;;;;;;;18.12;69.33;93456.59;4879051;29;20131;-77
2021/09/06 20:41:47;;;;;;;5.00;3.20;;;;;;;18.13;69.47;93452.88;4876306;29;20070;-77
2021/09/06 20:44:12;;;;;;;7.65;3.58;;;;;;;18.14;69.97;93455.19;4877366;29;20488;-77
2021/09/06 20:46:38;;;;;;;5.28;2.78;;;;;;;18.15;70.12;93459.41;4878086;29;20092;-77
2021/09/06 20:49:05;;;;;;;4.88;2.75;;;;;;;18.13;70.04;93458.16;4861870;29;20053;-77
2021/09/06 20:51:32;;;;;;;5.97;3.55;;;;;;;18.12;70.21;93460.00;4878757;29;20037;-77
2021/09/06 20:53:57;;;;;;;4.15;2.40;;;;;;;18.10;69.76;93464.84;4878365;29;20049;-77
2021/09/06 20:56:23;;;;;;;9.18;3.55;;;;;;;18.08;69.45;93465.16;4876374;29;20064;-77
2021/09/06 20:58:49;;;;;;;5.00;3.13;;;;;;;18.04;68.98;93461.56;4878631;29;20411;-77
2021/09/06 21:04:36;;;;;;;;;;;;;;;;;;;;;
2021/09/06 21:07:26;;;;;;;5.35;2.95;;;;;;;17.69;68.16;93410.34;4837706;29;20057;-93
2021/09/06 21:10:27;;;;;;;;;;;;;;;;;;;;;
2021/09/06 21:13:12;;;;;;;5.65;3.08;;;;;;;17.71;68.80;93404.75;4845279;29;20060;-93
2021/09/06 21:16:20;;;;;;;6.03;3.30;;;;;;;18.04;69.06;93458.91;4831772;29;20519;-92
2021/09/06 21:19:11;;;;;;;;;;;;;;;;;;;;;
2021/09/06 21:22:37;;;;;;;5.95;2.60;;;;;;;17.71;70.16;93412.69;4820722;29;20075;-93
2021/09/06 21:25:49;;;;;;;5.10;3.00;;;;;;;17.75;70.65;93424.22;4840301;29;20050;-92
2021/09/06 21:29:08;;;;;;;;;;;;;;;;;;;;;
2021/09/06 21:32:00;;;;;;;4.95;2.67;;;;;;;17.65;71.08;93412.03;4859062;29;20046;-93
2021/09/06 21:39:29;;;;;;;;;;;;;;;;;;;;;
2021/09/06 21:49:46;;;;;;;6.15;3.05;;;;;;;17.67;68.72;93442.44;4765516;29;20074;-92
2021/09/06 21:53:03;;;;;;;4.25;2.42;;;;;;;17.55;68.07;93418.41;4804815;29;20049;-93
2021/09/06 21:56:23;;;;;;;6.53;3.08;;;;;;;17.72;67.89;93432.78;4852024;29;20068;-92
2021/09/06 22:00:05;;;;;;;;;;;;;;;;;;;;;
2021/09/06 22:10:21;;;;;;;4.07;2.47;;;;;;;17.57;68.78;93431.34;4786952;29;20073;-92
2021/09/06 22:13:27;;;;;;;;;;;;;;;;;;;;;
2021/09/06 22:16:39;;;;;;;5.20;2.60;;;;;;;17.60;68.35;93441.31;4860679;29;20049;-91
2021/09/06 22:20:09;;;;;;;8.55;2.58;;;;;;;17.69;68.83;93465.94;4830531;29;20491;-91
2021/09/06 22:29:52;;;;;;;4.22;2.70;;;;;;;17.44;67.76;93438.28;4841005;29;20475;-92
2021/09/06 22:33:09;;;;;;;3.80;2.15;;;;;;;17.39;67.35;93436.56;4827534;29;20050;-91
2021/09/06 22:36:44;;;;;;;4.82;2.47;;;;;;;17.21;67.06;93422.47;4825650;29;20046;-93
2021/09/06 22:39:54;;;;;;;5.93;2.90;;;;;;;17.12;67.04;93431.44;4820241;29;20054;-93
2021/09/06 22:43:06;;;;;;;9.20;3.05;;;;;;;17.42;67.04;93477.50;4842068;29;20289;-92
2021/09/06 22:49:29;;;;;;;;;;;;;;;;;;;;;
2021/09/06 22:52:21;;;;;;;6.70;2.75;;;;;;;16.95;68.17;93432.91;4825691;29;20084;-92
2021/09/06 22:55:43;;;;;;;5.10;2.83;;;;;;;16.96;70.31;93431.81;4824900;29;20657;-92
2021/09/06 22:59:25;;;;;;;;;;;;;;;;;;;;;
2021/09/06 23:02:53;;;;;;;;;;;;;;;;;;;;;
2021/09/06 23:13:20;;;;;;;6.25;3.55;;;;;;;16.94;70.10;93462.31;4847635;29;20060;-92
2021/09/06 23:16:27;;;;;;;;;;;;;;;;;;;;;
2021/09/06 23:19:38;;;;;;;;;;;;;;;;;;;;;
2021/09/06 23:26:39;;;;;;;5.53;2.95;;;;;;;16.52;69.46;93435.22;4840579;29;20046;-91
2021/09/06 23:33:45;;;;;;;;;;;;;;;;;;;;;
2021/09/06 23:37:15;;;;;;;;;;;;;;;;;;;;;
2021/09/06 23:40:29;;;;;;;5.35;3.05;;;;;;;16.63;69.38;93466.41;4782141;29;20058;-92
2021/09/06 23:46:50;;;;;;;;;;;;;;;;;;;;;
2021/09/06 23:50:01;;;;;;;;;;;;;;;;;;;;;
2021/09/06 23:56:49;;;;;;;5.65;3.10;;;;;;;16.32;69.06;93428.53;4830648;29;20068;-92
